メインページ
METAR-TAF:

METAR-TAF

空港 :

鹿児島空港

鹿児島, 日本

緯度: 31-48N, 経度: 130-43E, 海抜: 272m

現時点の気象観測

当レポートは23分前の07:00(UTC)に作成
の風 9kt、北東から東/南東の間で変化する
気温 27°C
湿度 70%
気圧 1006 hPa
視程10km以上
高度3500ftの雲はほとんどない
高度5000ftの雲は散在している

METAR: RJFK 200700Z 09009KT 040V120 9999 FEW035 SCT050 27/21 Q1006 RMK 1CU035 4SC050 A2973 VOLCANIC ASH CLOUD S-SW

時間: 16:23 (07:23 UTC)

予報

当レポートは2時間17分前の05:06(UTC)に作成
予報は20日の 06時(UTC)から 21日の 12時(UTC)まで有効
の風 5kt
視程10km以上
高度2000ftの雲はほとんどない
高度5000ftの雲は散在している
20日の 11時(UTC)から 20日の 13時(UTC)まで徐々に
北東の風 4kt
20日の 21時(UTC)から 21日の 00時(UTC)まで徐々に
の風 15kt
21日の 03時(UTC)から 21日の 12時(UTC)まで一時的に
の風 15kt、最大27ktの突風を伴う

TAF: RJFK 200506Z 2006/2112 09005KT 9999 FEW020 SCT050 BECMG 2011/2013 05004KT BECMG 2021/2100 09015KT TEMPO 2103/2112 09015G27KT

4,000以上の空港の気象観測と天気予報(METAR報とTAF報)

利用可能な観測所は地図上に黄色い丸と赤い丸で示す。

丸の上にカーソルを重ねると観測所名を参照できる。

次にクリックすると気象観測と天気予報を参照できる。

マップの切り替え:黒色「×」印の緑ボタンをクリックして拡大、「-」印の緑ボタンをクリックして縮小、緑色の三角印をクリックして隣りの地図に切り替え


METAR-TAF: